Time;durP1;ratioP1;P1;durP2;ratioP2;P2;SDS_P1;SDS_P2;PMS_P1;PMS_P2;Temp;Humidity;BMP_temperature;BMP_pressure;BME280_temperature;BME280_humidity;BME280_pressure;Samples;Min_cycle;Max_cycle;Signal;HPM_P1;HPM_P2
2023/05/18 00:02:03;;;;;;;16.90;4.20;;;;;;;;;;106807;1261;22480;-83
2023/05/18 00:04:45;;;;;;;12.00;4.20;;;;;;;;;;106845;1277;22609;-80
2023/05/18 00:07:13;;;;;;;11.30;3.90;;;;;;;;;;106849;1277;22718;-81
2023/05/18 00:09:42;;;;;;;14.00;4.70;;;;;;;;;;106844;1278;22527;-81
2023/05/18 00:12:33;;;;;;;12.60;3.40;;;;;;;;;;106823;1259;22519;-80
2023/05/18 00:14:58;;;;;;;16.00;4.30;;;;;;;;;;106835;1278;22524;-83
2023/05/18 00:17:25;;;;;;;13.40;3.90;;;;;;;;;;106864;1277;22543;-79
2023/05/18 00:19:52;;;;;;;14.40;3.70;;;;;;;;;;106817;1277;24333;-83
2023/05/18 00:22:21;;;;;;;14.60;3.90;;;;;;;;;;106817;1272;22535;-81
2023/05/18 00:25:09;;;;;;;16.00;4.30;;;;;;;;;;106851;1278;24250;-84
2023/05/18 00:27:48;;;;;;;16.60;4.30;;;;;;;;;;106799;1279;25259;-77
2023/05/18 00:30:24;;;;;;;13.80;4.20;;;;;;;;;;106777;1279;22517;-83
2023/05/18 00:32:56;;;;;;;14.50;4.40;;;;;;;;;;106804;1263;22622;-81
2023/05/18 00:35:33;;;;;;;12.50;3.80;;;;;;;;;;106793;1279;22618;-83
2023/05/18 00:38:07;;;;;;;12.20;4.00;;;;;;;;;;106765;1279;22949;-76
2023/05/18 00:41:01;;;;;;;11.60;3.50;;;;;;;;;;106784;1279;24246;-78
2023/05/18 00:43:27;;;;;;;10.50;3.90;;;;;;;;;;106747;1279;23871;-77
2023/05/18 00:46:15;;;;;;;15.10;4.50;;;;;;;;;;106799;1279;22652;-84
2023/05/18 00:49:00;;;;;;;12.20;4.30;;;;;;;;;;106784;1279;22570;-81
2023/05/18 00:51:28;;;;;;;12.60;4.60;;;;;;;;;;106777;1279;24258;-80
2023/05/18 00:53:58;;;;;;;12.30;4.10;;;;;;;;;;106799;1269;22533;-77
2023/05/18 00:56:33;;;;;;;18.90;4.50;;;;;;;;;;106808;1279;24309;-84
2023/05/18 00:59:01;;;;;;;15.20;4.30;;;;;;;;;;106811;1279;22541;-79
2023/05/18 01:01:29;;;;;;;12.70;3.90;;;;;;;;;;106607;1279;24270;-83
2023/05/18 01:04:14;;;;;;;13.50;4.10;;;;;;;;;;106831;1269;22523;-83
2023/05/18 01:07:05;;;;;;;15.60;3.70;;;;;;;;;;106769;1279;22523;-80
2023/05/18 01:09:34;;;;;;;12.40;3.40;;;;;;;;;;106811;1279;22640;-83
2023/05/18 01:12:20;;;;;;;12.40;3.60;;;;;;;;;;106802;1279;23861;-80
2023/05/18 01:14:55;;;;;;;14.00;3.90;;;;;;;;;;106764;1259;22788;-80
2023/05/18 01:17:42;;;;;;;14.40;3.90;;;;;;;;;;106793;1279;24248;-82
2023/05/18 01:20:28;;;;;;;13.00;3.90;;;;;;;;;;106820;1279;23133;-82
2023/05/18 01:22:55;;;;;;;18.40;3.80;;;;;;;;;;106608;1267;21784;-81
2023/05/18 01:25:47;;;;;;;15.30;4.00;;;;;;;;;;106798;1279;22583;-83
2023/05/18 01:28:18;;;;;;;12.80;4.20;;;;;;;;;;106815;1279;22527;-81
2023/05/18 01:31:16;;;;;;;14.70;4.80;;;;;;;;;;106831;1279;24312;-83
2023/05/18 01:34:03;;;;;;;12.70;3.60;;;;;;;;;;106780;1270;25438;-78
2023/05/18 01:36:33;;;;;;;14.90;3.70;;;;;;;;;;106794;1279;23882;-81
2023/05/18 01:39:03;;;;;;;13.60;4.20;;;;;;;;;;106804;1279;22629;-80
2023/05/18 01:41:47;;;;;;;13.40;3.70;;;;;;;;;;106799;1279;22757;-84
2023/05/18 01:44:28;;;;;;;15.10;4.30;;;;;;;;;;106794;1269;24381;-81
2023/05/18 01:47:21;;;;;;;;;;;;;;;;;;;;;
2023/05/18 01:50:20;;;;;;;9.90;3.60;;;;;;;;;;106780;1279;23586;-80
2023/05/18 01:52:59;;;;;;;10.20;3.60;;;;;;;;;;106812;1279;22539;-77
2023/05/18 01:55:28;;;;;;;13.20;3.60;;;;;;;;;;106761;1267;22567;-80
2023/05/18 01:58:07;;;;;;;11.20;3.40;;;;;;;;;;106824;1279;24246;-81
2023/05/18 02:00:36;;;;;;;14.50;3.80;;;;;;;;;;106789;1279;22576;-83
2023/05/18 02:03:21;;;;;;;;;;;;;;;;;;;;;
2023/05/18 02:05:50;;;;;;;13.50;3.70;;;;;;;;;;106768;1261;24223;-78
2023/05/18 02:08:23;;;;;;;13.40;3.10;;;;;;;;;;106817;1279;24472;-83
2023/05/18 02:10:57;;;;;;;13.10;3.70;;;;;;;;;;106792;1279;22770;-81
2023/05/18 02:13:37;;;;;;;;;;;;;;;;;;;;;
2023/05/18 02:16:53;;;;;;;12.80;3.70;;;;;;;;;;106790;1279;25312;-81
2023/05/18 02:19:21;;;;;;;10.60;3.10;;;;;;;;;;106808;1279;25378;-80
2023/05/18 02:22:10;;;;;;;13.80;3.30;;;;;;;;;;106800;1279;25241;-78
2023/05/18 02:24:57;;;;;;;18.00;3.40;;;;;;;;;;106779;1258;22539;-82
2023/05/18 02:27:44;;;;;;;12.30;3.20;;;;;;;;;;106475;1279;22550;-81
2023/05/18 02:30:14;;;;;;;12.30;3.20;;;;;;;;;;106830;1279;25366;-77
2023/05/18 02:32:45;;;;;;;13.00;3.30;;;;;;;;;;106813;1279;22526;-79
2023/05/18 02:35:24;;;;;;;14.40;3.40;;;;;;;;;;106757;1270;22647;-83
2023/05/18 02:38:01;;;;;;;12.90;3.20;;;;;;;;;;106795;1260;22526;-80
2023/05/18 02:40:28;;;;;;;11.40;3.00;;;;;;;;;;106776;1279;22506;-78
2023/05/18 02:42:55;;;;;;;14.20;3.10;;;;;;;;;;106778;1279;22668;-77
2023/05/18 02:45:22;;;;;;;10.80;2.60;;;;;;;;;;106780;1261;22562;-76
2023/05/18 02:47:59;;;;;;;;;;;;;;;;;;;;;
2023/05/18 02:50:36;;;;;;;13.70;3.00;;;;;;;;;;106807;1279;25297;-77
2023/05/18 02:53:03;;;;;;;13.70;3.30;;;;;;;;;;106867;1279;23603;-81
2023/05/18 02:55:47;;;;;;;;;;;;;;;;;;;;;
2023/05/18 02:58:21;;;;;;;13.20;2.80;;;;;;;;;;106801;1279;25316;-80
2023/05/18 03:01:08;;;;;;;16.50;2.80;;;;;;;;;;106785;1279;25291;-79
2023/05/18 03:03:43;;;;;;;14.80;3.30;;;;;;;;;;106809;1279;25350;-79
2023/05/18 03:06:24;;;;;;;;;;;;;;;;;;;;;
2023/05/18 03:09:03;;;;;;;12.60;3.10;;;;;;;;;;106773;1279;24182;-79
2023/05/18 03:11:39;;;;;;;16.90;4.00;;;;;;;;;;106816;1279;22531;-83
2023/05/18 03:14:09;;;;;;;12.30;2.70;;;;;;;;;;106773;1279;22636;-83
2023/05/18 03:16:37;;;;;;;12.90;2.80;;;;;;;;;;106766;1270;25225;-79
2023/05/18 03:19:15;;;;;;;13.60;3.20;;;;;;;;;;106837;1279;22540;-83
2023/05/18 03:22:03;;;;;;;15.00;3.40;;;;;;;;;;106812;1279;23697;-81
2023/05/18 03:24:39;;;;;;;14.10;4.60;;;;;;;;;;106784;1279;22579;-81
2023/05/18 03:27:26;;;;;;;14.70;3.80;;;;;;;;;;106762;1279;22527;-82
2023/05/18 03:29:58;;;;;;;12.50;3.40;;;;;;;;;;106746;1279;25312;-80
2023/05/18 03:32:32;;;;;;;11.40;3.40;;;;;;;;;;106837;1279;25281;-81
2023/05/18 03:35:02;;;;;;;13.70;3.40;;;;;;;;;;106821;1279;22530;-79
2023/05/18 03:37:40;;;;;;;14.40;3.30;;;;;;;;;;106754;1269;22689;-79
2023/05/18 03:40:09;;;;;;;14.10;3.60;;;;;;;;;;106781;1279;24263;-80
2023/05/18 03:42:38;;;;;;;11.40;3.00;;;;;;;;;;106922;1276;25342;-77
2023/05/18 03:45:08;;;;;;;14.90;3.20;;;;;;;;;;106880;1276;22527;-83
2023/05/18 03:47:36;;;;;;;14.40;2.90;;;;;;;;;;106847;1276;22521;-80
2023/05/18 03:50:06;;;;;;;12.50;3.20;;;;;;;;;;106886;1276;24225;-80
2023/05/18 03:52:37;;;;;;;11.80;3.30;;;;;;;;;;106920;1276;22529;-82
2023/05/18 03:55:19;;;;;;;;;;;;;;;;;;;;;
2023/05/18 03:57:58;;;;;;;15.60;3.60;;;;;;;;;;106973;1269;22491;-77
2023/05/18 04:00:25;;;;;;;11.70;3.30;;;;;;;;;;106894;1276;25308;-81
2023/05/18 04:02:54;;;;;;;14.10;3.70;;;;;;;;;;106852;1276;22541;-83
2023/05/18 04:05:23;;;;;;;16.40;3.60;;;;;;;;;;106883;1276;22522;-80
2023/05/18 04:07:50;;;;;;;18.10;3.40;;;;;;;;;;106783;1260;22538;-79
2023/05/18 04:10:37;;;;;;;15.30;3.20;;;;;;;;;;106781;1276;25322;-77
2023/05/18 04:13:03;;;;;;;13.20;3.20;;;;;;;;;;106883;1276;25230;-78
2023/05/18 04:15:50;;;;;;;12.40;3.30;;;;;;;;;;106891;1276;25326;-76
2023/05/18 04:18:21;;;;;;;11.30;2.80;;;;;;;;;;106887;1276;22705;-81
2023/05/18 04:20:50;;;;;;;14.00;2.90;;;;;;;;;;106868;1276;24199;-83
2023/05/18 04:23:18;;;;;;;15.40;3.10;;;;;;;;;;106929;1276;25329;-79
2023/05/18 04:25:48;;;;;;;12.70;2.70;;;;;;;;;;106874;1276;25281;-81
2023/05/18 04:28:18;;;;;;;15.10;2.90;;;;;;;;;;106850;1258;24371;-82
2023/05/18 04:30:46;;;;;;;13.30;2.70;;;;;;;;;;106899;1276;24196;-82
2023/05/18 04:33:40;;;;;;;15.10;3.10;;;;;;;;;;106898;1276;24367;-81
2023/05/18 04:36:08;;;;;;;15.40;3.10;;;;;;;;;;106940;1276;26530;-76
2023/05/18 04:38:38;;;;;;;14.10;2.90;;;;;;;;;;106917;1276;25236;-86
2023/05/18 04:41:08;;;;;;;13.20;2.90;;;;;;;;;;106867;1276;24371;-83
2023/05/18 04:43:55;;;;;;;12.30;3.20;;;;;;;;;;106900;1276;25399;-80
2023/05/18 04:46:22;;;;;;;12.10;3.00;;;;;;;;;;106901;1276;22531;-78
2023/05/18 04:48:49;;;;;;;15.90;3.00;;;;;;;;;;106901;1258;24193;-79
2023/05/18 04:51:20;;;;;;;11.70;3.10;;;;;;;;;;106854;1276;22537;-82
2023/05/18 04:53:50;;;;;;;12.60;2.80;;;;;;;;;;106775;1276;25337;-81
2023/05/18 04:56:17;;;;;;;13.50;3.30;;;;;;;;;;106562;1276;24193;-83
2023/05/18 04:58:47;;;;;;;13.60;3.80;;;;;;;;;;106915;1260;22533;-81
2023/05/18 05:01:16;;;;;;;18.20;3.60;;;;;;;;;;106938;1276;25265;-81
2023/05/18 05:03:43;;;;;;;15.40;3.20;;;;;;;;;;106843;1276;24196;-83
2023/05/18 05:06:11;;;;;;;16.20;3.90;;;;;;;;;;106884;1276;24243;-77
2023/05/18 05:08:40;;;;;;;12.60;3.70;;;;;;;;;;106864;1257;22523;-77
2023/05/18 05:11:27;;;;;;;15.50;3.50;;;;;;;;;;106878;1276;24347;-82
2023/05/18 05:14:25;;;;;;;;;;;;;;;;;;;;;
2023/05/18 05:16:53;;;;;;;16.80;3.80;;;;;;;;;;106836;1277;25230;-78
2023/05/18 05:19:20;;;;;;;13.00;4.00;;;;;;;;;;106858;1259;25343;-77
2023/05/18 05:21:47;;;;;;;20.10;3.10;;;;;;;;;;106784;1277;22552;-84
2023/05/18 05:24:16;;;;;;;14.40;3.50;;;;;;;;;;106843;1264;22563;-81
2023/05/18 05:26:43;;;;;;;17.40;3.40;;;;;;;;;;106829;1277;22652;-81
2023/05/18 05:29:13;;;;;;;11.80;3.30;;;;;;;;;;106835;1277;25290;-78
2023/05/18 05:32:01;;;;;;;20.10;4.00;;;;;;;;;;106857;1277;22527;-77
2023/05/18 05:34:28;;;;;;;16.60;4.00;;;;;;;;;;106734;1270;23900;-80
2023/05/18 05:37:09;;;;;;;20.60;3.60;;;;;;;;;;106921;1270;22604;-77
2023/05/18 05:40:18;;;;;;;13.40;3.20;;;;;;;;;;106905;1267;25311;-80
2023/05/18 05:42:46;;;;;;;17.40;4.30;;;;;;;;;;106955;1276;25284;-77
2023/05/18 05:45:43;;;;;;;13.10;3.70;;;;;;;;;;106915;1273;25271;-79
2023/05/18 05:48:20;;;;;;;14.90;3.30;;;;;;;;;;106879;1276;22887;-77
2023/05/18 05:50:56;;;;;;;19.50;3.90;;;;;;;;;;106960;1270;22661;-79
2023/05/18 05:53:46;;;;;;;14.10;2.70;;;;;;;;;;110223;1276;22202;-77
2023/05/18 05:56:13;;;;;;;16.80;3.30;;;;;;;;;;110369;1277;22178;-77
2023/05/18 05:58:41;;;;;;;14.80;2.90;;;;;;;;;;110360;1277;22441;-78
2023/05/18 06:01:08;;;;;;;17.10;2.50;;;;;;;;;;110320;1260;22850;-77
2023/05/18 06:03:36;;;;;;;13.00;2.90;;;;;;;;;;110460;1277;22180;-77
2023/05/18 06:06:05;;;;;;;13.90;2.90;;;;;;;;;;110389;1263;22125;-77
2023/05/18 06:08:31;;;;;;;17.40;2.70;;;;;;;;;;110371;1277;22328;-78
2023/05/18 06:10:59;;;;;;;14.50;2.50;;;;;;;;;;110382;1259;22116;-77
2023/05/18 06:13:25;;;;;;;16.10;2.70;;;;;;;;;;110382;1277;22396;-77
2023/05/18 06:15:55;;;;;;;11.70;2.80;;;;;;;;;;110392;1270;22489;-77
2023/05/18 06:18:23;;;;;;;11.00;2.70;;;;;;;;;;110398;1277;22124;-78
2023/05/18 06:20:51;;;;;;;14.30;2.10;;;;;;;;;;110415;1260;22197;-77
2023/05/18 06:23:21;;;;;;;11.40;2.20;;;;;;;;;;110358;1270;22348;-78
2023/05/18 06:26:03;;;;;;;13.40;2.70;;;;;;;;;;110465;1276;22422;-79
2023/05/18 06:28:50;;;;;;;10.90;2.60;;;;;;;;;;110444;1277;22410;-78
2023/05/18 06:31:34;;;;;;;15.60;3.20;;;;;;;;;;110366;1259;22159;-77
2023/05/18 06:34:14;;;;;;;13.90;3.30;;;;;;;;;;110218;1277;22117;-77
2023/05/18 06:36:40;;;;;;;13.70;3.10;;;;;;;;;;110455;1277;22395;-78
2023/05/18 06:39:07;;;;;;;15.90;4.00;;;;;;;;;;110440;1277;22890;-78
2023/05/18 06:41:34;;;;;;;20.30;5.40;;;;;;;;;;110461;1256;22118;-78
2023/05/18 06:44:02;;;;;;;24.20;5.00;;;;;;;;;;110295;1277;23006;-77
2023/05/18 06:46:48;;;;;;;12.90;3.30;;;;;;;;;;110411;1277;22223;-79
2023/05/18 06:49:21;;;;;;;17.40;4.00;;;;;;;;;;110363;1277;21984;-78
2023/05/18 06:51:48;;;;;;;13.90;2.30;;;;;;;;;;110243;1260;22183;-78
2023/05/18 06:54:15;;;;;;;10.20;2.20;;;;;;;;;;110427;1277;22171;-78
2023/05/18 06:56:42;;;;;;;14.00;3.60;;;;;;;;;;110313;1277;22247;-78
2023/05/18 06:59:09;;;;;;;10.70;2.70;;;;;;;;;;110388;1277;22138;-78
2023/05/18 07:01:36;;;;;;;12.00;2.40;;;;;;;;;;110371;1257;22225;-77
2023/05/18 07:04:03;;;;;;;13.50;2.00;;;;;;;;;;110195;1277;22141;-78
2023/05/18 07:06:30;;;;;;;9.80;2.20;;;;;;;;;;110427;1277;22743;-78
2023/05/18 07:08:57;;;;;;;12.20;2.30;;;;;;;;;;110409;1277;22557;-78
2023/05/18 07:11:24;;;;;;;10.30;2.00;;;;;;;;;;110426;1256;22957;-78
2023/05/18 07:13:50;;;;;;;11.90;2.20;;;;;;;;;;110360;1277;22824;-79
2023/05/18 07:16:17;;;;;;;12.10;2.50;;;;;;;;;;110347;1277;22131;-78
2023/05/18 07:18:44;;;;;;;15.60;2.30;;;;;;;;;;110374;1277;22175;-78
2023/05/18 07:21:11;;;;;;;12.00;2.40;;;;;;;;;;110422;1256;22209;-76
2023/05/18 07:23:37;;;;;;;10.80;2.20;;;;;;;;;;110404;1277;22184;-78
2023/05/18 07:26:06;;;;;;;14.60;2.60;;;;;;;;;;110361;1277;22874;-77
2023/05/18 07:28:33;;;;;;;12.30;3.40;;;;;;;;;;110440;1277;23029;-78
2023/05/18 07:31:00;;;;;;;13.80;3.90;;;;;;;;;;110537;1254;22928;-78
2023/05/18 07:33:26;;;;;;;12.70;2.90;;;;;;;;;;110448;1277;22992;-78
2023/05/18 07:35:53;;;;;;;15.40;3.30;;;;;;;;;;110403;1277;22909;-77
2023/05/18 07:38:20;;;;;;;10.50;2.00;;;;;;;;;;110411;1277;22299;-77
2023/05/18 07:40:46;;;;;;;12.70;2.70;;;;;;;;;;110418;1254;23332;-77
2023/05/18 07:43:13;;;;;;;9.00;1.80;;;;;;;;;;110309;1278;22304;-77
2023/05/18 07:45:40;;;;;;;10.20;2.10;;;;;;;;;;110311;1279;22108;-79
2023/05/18 07:48:06;;;;;;;9.20;1.70;;;;;;;;;;110179;1279;23177;-80
2023/05/18 07:50:33;;;;;;;10.70;1.70;;;;;;;;;;110180;1279;22225;-78
2023/05/18 07:53:00;;;;;;;8.80;1.90;;;;;;;;;;110474;1256;22344;-77
2023/05/18 07:55:26;;;;;;;8.30;1.60;;;;;;;;;;110310;1279;22150;-79
2023/05/18 07:57:53;;;;;;;10.00;1.80;;;;;;;;;;110300;1279;22769;-78
2023/05/18 08:00:20;;;;;;;9.20;1.70;;;;;;;;;;110198;1279;22142;-78
2023/05/18 08:02:47;;;;;;;8.70;1.90;;;;;;;;;;110190;1260;22169;-78
2023/05/18 08:05:13;;;;;;;9.40;2.10;;;;;;;;;;110187;1279;22191;-78
2023/05/18 08:07:41;;;;;;;20.70;11.40;;;;;;;;;;110313;1263;22108;-79
2023/05/18 08:10:08;;;;;;;16.10;8.10;;;;;;;;;;110323;1279;22087;-78
2023/05/18 08:12:34;;;;;;;10.70;2.20;;;;;;;;;;110419;1260;22108;-78
2023/05/18 08:15:01;;;;;;;13.50;3.00;;;;;;;;;;110310;1279;22748;-78
2023/05/18 08:17:28;;;;;;;10.60;1.90;;;;;;;;;;110314;1279;22218;-77
2023/05/18 08:19:55;;;;;;;11.20;2.30;;;;;;;;;;110188;1279;22111;-78
2023/05/18 08:22:22;;;;;;;11.70;2.20;;;;;;;;;;110385;1256;22098;-78
2023/05/18 08:24:49;;;;;;;10.50;1.90;;;;;;;;;;110315;1279;22073;-79
2023/05/18 08:27:16;;;;;;;12.70;6.10;;;;;;;;;;110773;1255;22095;-78
2023/05/18 08:29:43;;;;;;;11.30;2.20;;;;;;;;;;110301;1278;22112;-78
2023/05/18 08:32:10;;;;;;;12.70;2.00;;;;;;;;;;110259;1256;22116;-77
2023/05/18 08:34:36;;;;;;;13.70;3.00;;;;;;;;;;110274;1279;22610;-79
2023/05/18 08:37:03;;;;;;;8.90;1.80;;;;;;;;;;110323;1278;22109;-78
2023/05/18 08:39:31;;;;;;;8.20;1.70;;;;;;;;;;110166;1279;22117;-78
2023/05/18 08:42:03;;;;;;;8.40;1.50;;;;;;;;;;110105;1280;22386;-79
2023/05/18 08:44:37;;;;;;;9.60;2.00;;;;;;;;;;110214;1263;22131;-78
2023/05/18 08:47:08;;;;;;;11.20;2.50;;;;;;;;;;110422;1258;22109;-78
2023/05/18 08:49:35;;;;;;;11.00;2.10;;;;;;;;;;110129;1280;22881;-78
2023/05/18 08:52:03;;;;;;;9.30;1.90;;;;;;;;;;110130;1280;22155;-78
2023/05/18 08:54:30;;;;;;;9.00;1.80;;;;;;;;;;110504;1259;22036;-77
2023/05/18 08:56:57;;;;;;;9.90;1.70;;;;;;;;;;110096;1280;22114;-78
2023/05/18 08:59:25;;;;;;;10.20;2.20;;;;;;;;;;110078;1280;22161;-77
2023/05/18 09:01:53;;;;;;;10.20;1.80;;;;;;;;;;110132;1280;22166;-77
2023/05/18 09:04:20;;;;;;;9.70;1.90;;;;;;;;;;110414;1258;22142;-78
2023/05/18 09:06:48;;;;;;;9.30;1.70;;;;;;;;;;110026;1280;22906;-79
2023/05/18 09:09:19;;;;;;;10.10;1.80;;;;;;;;;;110093;1280;22127;-78
2023/05/18 09:11:46;;;;;;;9.70;2.00;;;;;;;;;;110140;1280;22132;-78
2023/05/18 09:14:13;;;;;;;10.50;1.80;;;;;;;;;;110227;1261;22860;-78
2023/05/18 09:16:40;;;;;;;8.20;1.70;;;;;;;;;;110135;1280;22031;-78
2023/05/18 09:19:10;;;;;;;8.20;1.70;;;;;;;;;;110138;1280;22137;-78
2023/05/18 09:21:37;;;;;;;11.40;1.90;;;;;;;;;;110146;1280;22143;-78
2023/05/18 09:24:05;;;;;;;8.20;2.00;;;;;;;;;;110275;1258;22201;-77
2023/05/18 09:26:32;;;;;;;8.20;1.80;;;;;;;;;;110076;1280;22132;-80
2023/05/18 09:29:02;;;;;;;11.30;1.80;;;;;;;;;;110086;1280;22137;-80
2023/05/18 09:31:29;;;;;;;8.30;2.00;;;;;;;;;;110143;1280;22127;-78
2023/05/18 09:33:57;;;;;;;6.60;1.70;;;;;;;;;;110147;1261;22216;-78
2023/05/18 09:36:28;;;;;;;9.30;2.00;;;;;;;;;;110081;1280;22147;-78
2023/05/18 09:39:15;;;;;;;11.30;2.40;;;;;;;;;;110107;1280;22726;-78
2023/05/18 09:41:42;;;;;;;5.50;1.60;;;;;;;;;;110116;1278;22193;-79
2023/05/18 09:44:16;;;;;;;8.50;1.90;;;;;;;;;;110268;1258;22165;-77
2023/05/18 09:46:43;;;;;;;8.90;1.90;;;;;;;;;;110062;1281;22134;-78
2023/05/18 09:49:10;;;;;;;7.80;1.80;;;;;;;;;;110104;1281;22599;-78
2023/05/18 09:51:38;;;;;;;8.80;1.50;;;;;;;;;;110026;1281;22047;-79
2023/05/18 09:54:07;;;;;;;7.00;1.80;;;;;;;;;;110148;1262;22575;-78
2023/05/18 09:56:37;;;;;;;8.40;2.10;;;;;;;;;;110079;1281;22120;-79
2023/05/18 09:59:22;;;;;;;6.50;1.70;;;;;;;;;;110107;1281;22112;-78
2023/05/18 10:02:04;;;;;;;10.30;2.20;;;;;;;;;;107842;1280;3046555;-78
2023/05/18 10:04:34;;;;;;;6.60;2.00;;;;;;;;;;110252;1259;22120;-78
2023/05/18 10:07:02;;;;;;;7.50;1.90;;;;;;;;;;110063;1280;22120;-78
2023/05/18 10:09:32;;;;;;;8.30;2.30;;;;;;;;;;110132;1280;22106;-78
2023/05/18 10:11:58;;;;;;;7.90;1.80;;;;;;;;;;110160;1280;22865;-78
2023/05/18 10:14:29;;;;;;;8.60;1.90;;;;;;;;;;110135;1262;22121;-79
2023/05/18 10:16:55;;;;;;;7.80;1.30;;;;;;;;;;110141;1280;22585;-79
2023/05/18 10:19:30;;;;;;;8.90;2.00;;;;;;;;;;110144;1280;22905;-80
2023/05/18 10:22:05;;;;;;;8.00;1.80;;;;;;;;;;110143;1280;22113;-79
2023/05/18 10:24:33;;;;;;;8.60;1.80;;;;;;;;;;110091;1259;22104;-77
2023/05/18 10:27:05;;;;;;;8.90;1.90;;;;;;;;;;110054;1277;22838;-78
2023/05/18 10:29:32;;;;;;;8.10;1.50;;;;;;;;;;110138;1280;22124;-77
2023/05/18 10:32:02;;;;;;;7.50;1.40;;;;;;;;;;110103;1280;22115;-79
2023/05/18 10:34:29;;;;;;;8.80;2.20;;;;;;;;;;110149;1257;23038;-78
2023/05/18 10:36:56;;;;;;;9.80;1.70;;;;;;;;;;110029;1280;22127;-78
2023/05/18 10:39:25;;;;;;;5.70;1.30;;;;;;;;;;110129;1280;22106;-78
2023/05/18 10:41:54;;;;;;;7.60;1.40;;;;;;;;;;110096;1280;22888;-77
2023/05/18 10:44:21;;;;;;;11.00;1.50;;;;;;;;;;110065;1281;22784;-77
2023/05/18 10:46:49;;;;;;;11.30;1.50;;;;;;;;;;110225;1263;22129;-77
2023/05/18 10:49:16;;;;;;;12.20;2.10;;;;;;;;;;110103;1280;22119;-77
2023/05/18 10:51:45;;;;;;;11.40;1.70;;;;;;;;;;110067;1281;22864;-77
2023/05/18 10:54:13;;;;;;;6.00;1.20;;;;;;;;;;110092;1280;22366;-78
2023/05/18 10:56:42;;;;;;;6.80;1.60;;;;;;;;;;110374;1258;22156;-78
2023/05/18 10:59:09;;;;;;;5.90;1.30;;;;;;;;;;110054;1281;22153;-77
2023/05/18 11:01:38;;;;;;;6.20;1.30;;;;;;;;;;110106;1281;22106;-78
2023/05/18 11:04:05;;;;;;;5.60;1.50;;;;;;;;;;110109;1274;22267;-79
2023/05/18 11:06:33;;;;;;;6.60;1.50;;;;;;;;;;110358;1263;22140;-78
2023/05/18 11:09:01;;;;;;;5.00;1.30;;;;;;;;;;110081;1281;22105;-78
2023/05/18 11:11:29;;;;;;;13.70;1.70;;;;;;;;;;110130;1281;22108;-79
2023/05/18 11:14:00;;;;;;;18.40;2.20;;;;;;;;;;110108;1281;22125;-78
2023/05/18 11:16:35;;;;;;;9.00;1.50;;;;;;;;;;110235;1262;22140;-79
2023/05/18 11:19:05;;;;;;;7.20;1.50;;;;;;;;;;110085;1281;22753;-78
2023/05/18 11:21:35;;;;;;;7.00;2.00;;;;;;;;;;110042;1281;22174;-77
2023/05/18 11:24:12;;;;;;;5.30;1.60;;;;;;;;;;110106;1281;22197;-79
2023/05/18 11:26:39;;;;;;;5.20;1.20;;;;;;;;;;110053;1263;22770;-80
2023/05/18 11:29:17;;;;;;;8.80;2.20;;;;;;;;;;110101;1281;22105;-76
2023/05/18 11:31:49;;;;;;;12.00;4.40;;;;;;;;;;110115;1280;22129;-76
2023/05/18 11:34:35;;;;;;;10.50;1.90;;;;;;;;;;110099;1281;22787;-76
2023/05/18 11:37:03;;;;;;;6.10;1.20;;;;;;;;;;110229;1259;22932;-78
2023/05/18 11:39:31;;;;;;;6.60;1.50;;;;;;;;;;110136;1281;22097;-79
2023/05/18 11:41:58;;;;;;;9.40;1.70;;;;;;;;;;110064;1281;22079;-77
2023/05/18 11:44:27;;;;;;;8.10;1.50;;;;;;;;;;109996;1280;22113;-78
2023/05/18 11:46:58;;;;;;;7.30;1.30;;;;;;;;;;110170;1262;22143;-78
2023/05/18 11:49:30;;;;;;;7.40;1.50;;;;;;;;;;110044;1274;22594;-76
2023/05/18 11:52:04;;;;;;;5.80;1.60;;;;;;;;;;110038;1281;22111;-79
2023/05/18 11:54:45;;;;;;;7.00;1.80;;;;;;;;;;110111;1281;22140;-77
2023/05/18 11:57:13;;;;;;;5.10;1.10;;;;;;;;;;110334;1259;22813;-77
2023/05/18 11:59:48;;;;;;;8.40;1.40;;;;;;;;;;110122;1281;22789;-77
2023/05/18 12:02:20;;;;;;;8.30;1.40;;;;;;;;;;110057;1281;22129;-76
2023/05/18 12:04:50;;;;;;;7.30;1.30;;;;;;;;;;109994;1281;22116;-77
2023/05/18 12:07:19;;;;;;;4.90;1.20;;;;;;;;;;110148;1262;22830;-77
2023/05/18 12:09:50;;;;;;;7.20;1.70;;;;;;;;;;110092;1278;22120;-77
2023/05/18 12:12:22;;;;;;;5.40;1.40;;;;;;;;;;110059;1281;22780;-77
2023/05/18 12:15:00;;;;;;;5.30;1.50;;;;;;;;;;110087;1281;22203;-78
2023/05/18 12:17:39;;;;;;;8.90;1.30;;;;;;;;;;110185;1263;22234;-77
2023/05/18 12:20:08;;;;;;;7.50;1.30;;;;;;;;;;110027;1281;22260;-81
2023/05/18 12:22:36;;;;;;;4.70;1.60;;;;;;;;;;110069;1281;22118;-77
2023/05/18 12:25:08;;;;;;;9.30;2.00;;;;;;;;;;110050;1281;22101;-77
2023/05/18 12:27:39;;;;;;;7.10;1.50;;;;;;;;;;110077;1264;22132;-80
2023/05/18 12:30:16;;;;;;;6.80;1.80;;;;;;;;;;110097;1281;22119;-77
2023/05/18 12:32:51;;;;;;;8.00;1.70;;;;;;;;;;110082;1281;22119;-78
2023/05/18 12:35:57;;;;;;;6.90;1.50;;;;;;;;;;110104;1281;22118;-77
2023/05/18 12:38:31;;;;;;;7.80;1.70;;;;;;;;;;110322;1263;22171;-80
2023/05/18 12:40:59;;;;;;;9.80;1.80;;;;;;;;;;110046;1274;22611;-78
2023/05/18 12:43:37;;;;;;;;;;;;;;;;;;;;;
2023/05/18 12:46:07;;;;;;;5.60;1.60;;;;;;;;;;110054;1282;22127;-78
2023/05/18 12:48:37;;;;;;;5.00;1.60;;;;;;;;;;110326;1263;22142;-78
2023/05/18 12:51:16;;;;;;;6.30;1.60;;;;;;;;;;110061;1282;22231;-77
2023/05/18 12:53:45;;;;;;;7.40;1.40;;;;;;;;;;110052;1282;22082;-77
2023/05/18 12:56:16;;;;;;;4.70;1.30;;;;;;;;;;110043;1282;22877;-77
2023/05/18 12:58:58;;;;;;;6.10;1.60;;;;;;;;;;110080;1259;22215;-78
2023/05/18 13:01:28;;;;;;;6.60;2.00;;;;;;;;;;110030;1282;22141;-77
2023/05/18 13:03:58;;;;;;;6.90;1.70;;;;;;;;;;110067;1282;21968;-78
2023/05/18 13:06:27;;;;;;;8.80;1.90;;;;;;;;;;110052;1282;22152;-77
2023/05/18 13:08:56;;;;;;;8.00;2.00;;;;;;;;;;110211;1263;22126;-77
2023/05/18 13:11:29;;;;;;;5.00;1.80;;;;;;;;;;110038;1282;21770;-77
2023/05/18 13:14:05;;;;;;;7.10;1.60;;;;;;;;;;110073;1282;22090;-77
2023/05/18 13:16:33;;;;;;;6.60;1.60;;;;;;;;;;110073;1281;22171;-78
2023/05/18 13:19:09;;;;;;;10.00;3.20;;;;;;;;;;110167;1263;22827;-77
2023/05/18 13:21:38;;;;;;;13.00;2.20;;;;;;;;;;109978;1282;22092;-77
2023/05/18 13:24:07;;;;;;;8.10;1.80;;;;;;;;;;110067;1282;22833;-77
2023/05/18 13:26:39;;;;;;;9.10;1.90;;;;;;;;;;110054;1282;22002;-77
2023/05/18 13:29:08;;;;;;;10.60;1.70;;;;;;;;;;110221;1262;22143;-77
2023/05/18 13:31:37;;;;;;;7.00;1.90;;;;;;;;;;110072;1282;22462;-77
2023/05/18 13:34:06;;;;;;;7.10;2.10;;;;;;;;;;110023;1282;22105;-77
2023/05/18 13:36:36;;;;;;;6.60;1.70;;;;;;;;;;110052;1282;22126;-76
2023/05/18 13:39:06;;;;;;;5.60;1.50;;;;;;;;;;110222;1264;22142;-76
2023/05/18 13:41:35;;;;;;;6.10;2.10;;;;;;;;;;110048;1271;22236;-76
2023/05/18 13:51:15;;;;;;;6.10;1.80;;;;;;;;;;103672;1303;544833;-77
2023/05/18 13:53:43;;;;;;;5.80;1.70;;;;;;;;;;106176;1280;25244;-79
2023/05/18 13:56:11;;;;;;;7.00;1.70;;;;;;;;;;106202;1280;24256;-76
2023/05/18 13:58:39;;;;;;;5.50;1.50;;;;;;;;;;105969;1288;25413;-78
2023/05/18 14:01:08;;;;;;;6.40;2.00;;;;;;;;;;105961;1268;22582;-77
2023/05/18 14:03:35;;;;;;;5.40;1.60;;;;;;;;;;106247;1288;25342;-79
2023/05/18 14:06:09;;;;;;;6.50;1.70;;;;;;;;;;103752;1280;3268432;-79
2023/05/18 14:08:36;;;;;;;8.50;2.30;;;;;;;;;;106018;1284;23381;-79
2023/05/18 14:11:03;;;;;;;6.90;2.00;;;;;;;;;;106291;1284;22659;-78
2023/05/18 14:13:30;;;;;;;7.90;1.70;;;;;;;;;;106281;1280;22537;-80
2023/05/18 14:15:57;;;;;;;7.20;1.80;;;;;;;;;;106109;1279;22546;-77
2023/05/18 14:18:34;;;;;;;6.70;1.80;;;;;;;;;;106165;1283;24213;-79
2023/05/18 14:21:04;;;;;;;6.80;2.40;;;;;;;;;;106382;1276;22526;-79
2023/05/18 14:23:31;;;;;;;6.20;1.50;;;;;;;;;;106248;1280;24362;-78
2023/05/18 14:25:58;;;;;;;14.00;4.50;;;;;;;;;;106217;1280;22647;-76
2023/05/18 14:28:29;;;;;;;9.70;3.10;;;;;;;;;;106370;1282;22540;-79
2023/05/18 14:30:55;;;;;;;9.10;2.40;;;;;;;;;;106353;1264;22747;-76
2023/05/18 14:33:25;;;;;;;10.40;3.30;;;;;;;;;;106182;1280;23880;-79
2023/05/18 14:35:56;;;;;;;7.90;3.40;;;;;;;;;;106197;1283;26483;-80
2023/05/18 14:38:27;;;;;;;10.50;3.30;;;;;;;;;;106117;1279;24188;-76
2023/05/18 14:40:54;;;;;;;9.80;2.50;;;;;;;;;;106268;1263;24230;-79
2023/05/18 14:43:21;;;;;;;5.20;1.60;;;;;;;;;;106082;1269;22569;-80
2023/05/18 14:45:47;;;;;;;5.90;1.40;;;;;;;;;;106066;1287;24037;-78
2023/05/18 14:48:14;;;;;;;3.40;1.10;;;;;;;;;;105996;1286;25412;-78
2023/05/18 14:50:41;;;;;;;5.90;1.40;;;;;;;;;;106417;1277;23140;-81
2023/05/18 14:53:08;;;;;;;3.80;1.30;;;;;;;;;;110094;1263;23124;-76
2023/05/18 14:55:35;;;;;;;4.30;1.40;;;;;;;;;;110061;1276;22214;-76
2023/05/18 14:58:03;;;;;;;6.30;1.50;;;;;;;;;;110118;1281;22304;-76
2023/05/18 15:00:30;;;;;;;5.70;1.70;;;;;;;;;;110093;1281;22260;-76
2023/05/18 15:02:57;;;;;;;5.90;1.70;;;;;;;;;;110091;1261;22200;-76
2023/05/18 15:05:24;;;;;;;6.10;2.00;;;;;;;;;;110101;1281;22127;-76
2023/05/18 15:07:50;;;;;;;6.80;2.20;;;;;;;;;;110447;1277;22128;-75